sensor_id;sensor_type;location;lat;lon;timestamp;temperature;humidity
72919;SHT30;61063;55.700;26.994;2022-11-02T00:04:22;8.6;84.1
72919;SHT30;61063;55.700;26.994;2022-11-02T00:09:12;8.5;84.3
72919;SHT30;61063;55.700;26.994;2022-11-02T00:14:40;8.5;84.6
72919;SHT30;61063;55.700;26.994;2022-11-02T00:19:38;8.4;84.8
72919;SHT30;61063;55.700;26.994;2022-11-02T00:24:26;8.4;84.9
72919;SHT30;61063;55.700;26.994;2022-11-02T00:29:10;8.5;84.7
72919;SHT30;61063;55.700;26.994;2022-11-02T00:34:38;8.6;84.4
72919;SHT30;61063;55.700;26.994;2022-11-02T00:39:36;8.7;84.1
72919;SHT30;61063;55.700;26.994;2022-11-02T00:44:24;8.7;84
72919;SHT30;61063;55.700;26.994;2022-11-02T00:49:14;8.7;84
72919;SHT30;61063;55.700;26.994;2022-11-02T00:54:40;8.8;84
72919;SHT30;61063;55.700;26.994;2022-11-02T00:59:40;8.8;84
72919;SHT30;61063;55.700;26.994;2022-11-02T01:04:38;8.8;84
72919;SHT30;61063;55.700;26.994;2022-11-02T01:09:26;8.8;84.1
72919;SHT30;61063;55.700;26.994;2022-11-02T01:14:28;8.8;84.1
72919;SHT30;61063;55.700;26.994;2022-11-02T01:19:28;8.8;84.1
72919;SHT30;61063;55.700;26.994;2022-11-02T01:24:00;8.8;84.3
72919;SHT30;61063;55.700;26.994;2022-11-02T01:29:44;8.7;85.1
72919;SHT30;61063;55.700;26.994;2022-11-02T01:34:20;8.7;85.5
72919;SHT30;61063;55.700;26.994;2022-11-02T01:39:28;8.8;85.8
72919;SHT30;61063;55.700;26.994;2022-11-02T01:44:24;8.8;85.8
72919;SHT30;61063;55.700;26.994;2022-11-02T01:49:42;8.8;86.3
72919;SHT30;61063;55.700;26.994;2022-11-02T01:54:43;8.8;86.4
72919;SHT30;61063;55.700;26.994;2022-11-02T01:59:31;8.7;86.6
72919;SHT30;61063;55.700;26.994;2022-11-02T02:04:10;8.7;86.7
72919;SHT30;61063;55.700;26.994;2022-11-02T02:09:38;8.7;87.1
72919;SHT30;61063;55.700;26.994;2022-11-02T02:14:40;8.7;87
72919;SHT30;61063;55.700;26.994;2022-11-02T02:19:43;8.7;87.1
72919;SHT30;61063;55.700;26.994;2022-11-02T02:24:35;8.7;87.4
72919;SHT30;61063;55.700;26.994;2022-11-02T02:29:20;8.7;87.5
72919;SHT30;61063;55.700;26.994;2022-11-02T02:34:31;8.8;87.3
72919;SHT30;61063;55.700;26.994;2022-11-02T02:39:41;8.8;87.1
72919;SHT30;61063;55.700;26.994;2022-11-02T02:44:43;8.8;87.1
72919;SHT30;61063;55.700;26.994;2022-11-02T02:49:19;8.8;87.2
72919;SHT30;61063;55.700;26.994;2022-11-02T02:54:33;8.8;87.3
72919;SHT30;61063;55.700;26.994;2022-11-02T02:59:17;8.9;87.3
72919;SHT30;61063;55.700;26.994;2022-11-02T03:04:44;8.9;87.4
72919;SHT30;61063;55.700;26.994;2022-11-02T03:09:07;8.9;87.3
72919;SHT30;61063;55.700;26.994;2022-11-02T03:14:35;8.9;87.5
72919;SHT30;61063;55.700;26.994;2022-11-02T03:18:57;8.9;87.5
72919;SHT30;61063;55.700;26.994;2022-11-02T03:24:44;9;87.2
72919;SHT30;61063;55.700;26.994;2022-11-02T03:29:43;9;87.2
72919;SHT30;61063;55.700;26.994;2022-11-02T03:34:08;8.9;87.3
72919;SHT30;61063;55.700;26.994;2022-11-02T03:39:05;8.9;87.5
72919;SHT30;61063;55.700;26.994;2022-11-02T03:44:12;8.8;87.7
72919;SHT30;61063;55.700;26.994;2022-11-02T03:49:20;8.8;87.8
72919;SHT30;61063;55.700;26.994;2022-11-02T03:54:16;8.8;87.9
72919;SHT30;61063;55.700;26.994;2022-11-02T03:59:44;8.8;87.8
72919;SHT30;61063;55.700;26.994;2022-11-02T04:03:56;8.8;87.9
72919;SHT30;61063;55.700;26.994;2022-11-02T04:09:42;8.7;88
72919;SHT30;61063;55.700;26.994;2022-11-02T04:14:34;8.6;88.3
72919;SHT30;61063;55.700;26.994;2022-11-02T04:19:40;8.6;88.5
72919;SHT30;61063;55.700;26.994;2022-11-02T04:24:42;8.6;88.4
72919;SHT30;61063;55.700;26.994;2022-11-02T04:29:06;8.7;88.4
72919;SHT30;61063;55.700;26.994;2022-11-02T04:33:56;8.7;88.4
72919;SHT30;61063;55.700;26.994;2022-11-02T04:39:18;8.7;88.4
72919;SHT30;61063;55.700;26.994;2022-11-02T04:44:44;8.7;88.4
72919;SHT30;61063;55.700;26.994;2022-11-02T04:49:16;8.6;88.6
72919;SHT30;61063;55.700;26.994;2022-11-02T04:54:44;8.6;88.8
72919;SHT30;61063;55.700;26.994;2022-11-02T04:59:32;8.7;88.8
72919;SHT30;61063;55.700;26.994;2022-11-02T05:04:30;8.8;88.5
72919;SHT30;61063;55.700;26.994;2022-11-02T05:09:14;8.7;88.6
72919;SHT30;61063;55.700;26.994;2022-11-02T05:14:04;8.8;88.7
72919;SHT30;61063;55.700;26.994;2022-11-02T05:19:44;8.8;88.5
72919;SHT30;61063;55.700;26.994;2022-11-02T05:24:44;8.8;88.5
72919;SHT30;61063;55.700;26.994;2022-11-02T05:29:16;8.8;88.3
72919;SHT30;61063;55.700;26.994;2022-11-02T05:34:42;8.8;88.4
72919;SHT30;61063;55.700;26.994;2022-11-02T05:39:06;8.8;88.4
72919;SHT30;61063;55.700;26.994;2022-11-02T05:44:06;8.9;88.4
72919;SHT30;61063;55.700;26.994;2022-11-02T05:49:18;8.9;88.4
72919;SHT30;61063;55.700;26.994;2022-11-02T05:54:44;8.9;88.3
72919;SHT30;61063;55.700;26.994;2022-11-02T05:59:44;9;88.2
72919;SHT30;61063;55.700;26.994;2022-11-02T06:04:06;9.1;88.1
72919;SHT30;61063;55.700;26.994;2022-11-02T06:09:42;9.1;88
72919;SHT30;61063;55.700;26.994;2022-11-02T06:13:56;9;87.9
72919;SHT30;61063;55.700;26.994;2022-11-02T06:19:28;8.9;88.1
72919;SHT30;61063;55.700;26.994;2022-11-02T06:24:14;8.9;88.5
72919;SHT30;61063;55.700;26.994;2022-11-02T06:29:04;9;88.5
72919;SHT30;61063;55.700;26.994;2022-11-02T06:33:54;9;88.2
72919;SHT30;61063;55.700;26.994;2022-11-02T06:39:40;9.1;87.9
72919;SHT30;61063;55.700;26.994;2022-11-02T06:44:12;9.2;87.8
72919;SHT30;61063;55.700;26.994;2022-11-02T06:49:40;9.2;87.6
72919;SHT30;61063;55.700;26.994;2022-11-02T06:54:04;9.3;87.4
72919;SHT30;61063;55.700;26.994;2022-11-02T06:59:04;9.4;87.1
72919;SHT30;61063;55.700;26.994;2022-11-02T07:03:54;9.4;86.8
72919;SHT30;61063;55.700;26.994;2022-11-02T07:09:24;9.4;86.6
72919;SHT30;61063;55.700;26.994;2022-11-02T07:14:42;9.5;86.3
72919;SHT30;61063;55.700;26.994;2022-11-02T07:19:04;9.7;85.8
72919;SHT30;61063;55.700;26.994;2022-11-02T07:23:54;9.8;85.3
72919;SHT30;61063;55.700;26.994;2022-11-02T07:29:30;10;84.9
72919;SHT30;61063;55.700;26.994;2022-11-02T07:34:30;10;84.8
72919;SHT30;61063;55.700;26.994;2022-11-02T07:39:14;10;84.8
72919;SHT30;61063;55.700;26.994;2022-11-02T07:43:54;10.1;84.4
72919;SHT30;61063;55.700;26.994;2022-11-02T07:49:04;10.2;84.3
72919;SHT30;61063;55.700;26.994;2022-11-02T07:54:40;10.2;84
72919;SHT30;61063;55.700;26.994;2022-11-02T07:59:14;10.2;84
72919;SHT30;61063;55.700;26.994;2022-11-02T08:04:42;10.2;83.7
72919;SHT30;61063;55.700;26.994;2022-11-02T08:09:10;10.1;83.9
72919;SHT30;61063;55.700;26.994;2022-11-02T08:13:54;10.2;84
72919;SHT30;61063;55.700;26.994;2022-11-02T08:19:16;10.4;83.6
72919;SHT30;61063;55.700;26.994;2022-11-02T08:24:24;10.6;82.8
72919;SHT30;61063;55.700;26.994;2022-11-02T08:29:28;10.7;82.5
72919;SHT30;61063;55.700;26.994;2022-11-02T08:34:40;10.8;82.6
72919;SHT30;61063;55.700;26.994;2022-11-02T08:39:04;10.9;82.3
72919;SHT30;61063;55.700;26.994;2022-11-02T08:44:42;11;81.9
72919;SHT30;61063;55.700;26.994;2022-11-02T08:49:20;11.2;81.9
72919;SHT30;61063;55.700;26.994;2022-11-02T08:54:42;11.3;81.7
72919;SHT30;61063;55.700;26.994;2022-11-02T08:59:28;11.3;81.3
72919;SHT30;61063;55.700;26.994;2022-11-02T09:04:04;11.4;81.5
72919;SHT30;61063;55.700;26.994;2022-11-02T09:09:42;11.4;81.4
72919;SHT30;61063;55.700;26.994;2022-11-02T09:14:14;11.4;81.2
72919;SHT30;61063;55.700;26.994;2022-11-02T09:19:42;11.4;81.2
72919;SHT30;61063;55.700;26.994;2022-11-02T09:24:15;11.5;81.2
72919;SHT30;61063;55.700;26.994;2022-11-02T09:29:30;11.6;80.8
72919;SHT30;61063;55.700;26.994;2022-11-02T09:34:18;11.7;80.5
72919;SHT30;61063;55.700;26.994;2022-11-02T09:39:26;11.7;80.4
72919;SHT30;61063;55.700;26.994;2022-11-02T09:44:34;11.8;80.3
72919;SHT30;61063;55.700;26.994;2022-11-02T09:49:40;11.8;80.2
72919;SHT30;61063;55.700;26.994;2022-11-02T09:54:06;11.8;80
72919;SHT30;61063;55.700;26.994;2022-11-02T09:59:28;11.8;79.9
72919;SHT30;61063;55.700;26.994;2022-11-02T10:05:01;11.8;80
72919;SHT30;61063;55.700;26.994;2022-11-02T10:09:15;11.7;80
72919;SHT30;61063;55.700;26.994;2022-11-02T10:14:31;11.7;80.3
72919;SHT30;61063;55.700;26.994;2022-11-02T10:19:03;11.7;80.3
72919;SHT30;61063;55.700;26.994;2022-11-02T10:24:43;11.7;80.3
72919;SHT30;61063;55.700;26.994;2022-11-02T10:29:15;11.6;80.3
72919;SHT30;61063;55.700;26.994;2022-11-02T10:34:42;11.5;80.5
72919;SHT30;61063;55.700;26.994;2022-11-02T10:39:08;11.6;80.5
72919;SHT30;61063;55.700;26.994;2022-11-02T10:44:50;11.7;80.3
72919;SHT30;61063;55.700;26.994;2022-11-02T10:49:10;11.6;80.2
72919;SHT30;61063;55.700;26.994;2022-11-02T10:54:26;11.6;80.1
72919;SHT30;61063;55.700;26.994;2022-11-02T10:59:30;11.6;79.9
72919;SHT30;61063;55.700;26.994;2022-11-02T11:04:38;11.6;80
72919;SHT30;61063;55.700;26.994;2022-11-02T11:09:19;11.7;79.7
72919;SHT30;61063;55.700;26.994;2022-11-02T11:14:43;11.7;79.9
72919;SHT30;61063;55.700;26.994;2022-11-02T11:19:31;11.7;80.1
72919;SHT30;61063;55.700;26.994;2022-11-02T11:24:17;11.6;80
72919;SHT30;61063;55.700;26.994;2022-11-02T11:29:31;11.6;79.9
72919;SHT30;61063;55.700;26.994;2022-11-02T11:34:20;11.7;79.9
72919;SHT30;61063;55.700;26.994;2022-11-02T11:39:43;11.7;79.5
72919;SHT30;61063;55.700;26.994;2022-11-02T11:44:14;11.8;79.2
72919;SHT30;61063;55.700;26.994;2022-11-02T11:49:43;11.8;79.4
72919;SHT30;61063;55.700;26.994;2022-11-02T11:54:40;11.8;79.8
72919;SHT30;61063;55.700;26.994;2022-11-02T11:59:08;11.7;79.6
72919;SHT30;61063;55.700;26.994;2022-11-02T12:04:04;11.7;79.6
72919;SHT30;61063;55.700;26.994;2022-11-02T12:09:23;11.7;79.5
72919;SHT30;61063;55.700;26.994;2022-11-02T12:14:31;11.6;79.9
72919;SHT30;61063;55.700;26.994;2022-11-02T12:19:26;11.6;80.1
72919;SHT30;61063;55.700;26.994;2022-11-02T12:24:00;11.6;80.2
72919;SHT30;61063;55.700;26.994;2022-11-02T12:29:51;11.6;80.1
72919;SHT30;61063;55.700;26.994;2022-11-02T12:34:49;11.5;80
72919;SHT30;61063;55.700;26.994;2022-11-02T12:39:26;11.4;80.2
72919;SHT30;61063;55.700;26.994;2022-11-02T12:44:32;11.4;80.2
72919;SHT30;61063;55.700;26.994;2022-11-02T12:49:43;11.3;80.5
72919;SHT30;61063;55.700;26.994;2022-11-02T12:54:29;11.2;80.7
72919;SHT30;61063;55.700;26.994;2022-11-02T12:59:13;11.1;80.9
72919;SHT30;61063;55.700;26.994;2022-11-02T13:04:43;11;81
72919;SHT30;61063;55.700;26.994;2022-11-02T13:09:39;11;81.1
72919;SHT30;61063;55.700;26.994;2022-11-02T13:13:56;11;81.5
72919;SHT30;61063;55.700;26.994;2022-11-02T13:19:17;11;81.5
72919;SHT30;61063;55.700;26.994;2022-11-02T13:24:25;11;81.7
72919;SHT30;61063;55.700;26.994;2022-11-02T13:29:16;11;81.7
72919;SHT30;61063;55.700;26.994;2022-11-02T13:34:28;11;81.8
72919;SHT30;61063;55.700;26.994;2022-11-02T13:39:04;10.9;81.9
72919;SHT30;61063;55.700;26.994;2022-11-02T13:45:00;10.9;81.9
72919;SHT30;61063;55.700;26.994;2022-11-02T13:49:43;10.9;82
72919;SHT30;61063;55.700;26.994;2022-11-02T13:54:25;10.9;82
72919;SHT30;61063;55.700;26.994;2022-11-02T13:59:29;10.8;82.1
72919;SHT30;61063;55.700;26.994;2022-11-02T14:04:42;10.8;82.1
72919;SHT30;61063;55.700;26.994;2022-11-02T14:09:37;10.8;82.3
72919;SHT30;61063;55.700;26.994;2022-11-02T14:14:15;10.8;82.3
72919;SHT30;61063;55.700;26.994;2022-11-02T14:19:51;10.8;82.2
72919;SHT30;61063;55.700;26.994;2022-11-02T14:25:15;10.7;82.3
72919;SHT30;61063;55.700;26.994;2022-11-02T14:29:50;10.7;82.4
72919;SHT30;61063;55.700;26.994;2022-11-02T14:34:44;10.7;82.4
72919;SHT30;61063;55.700;26.994;2022-11-02T14:39:16;10.7;82.3
72919;SHT30;61063;55.700;26.994;2022-11-02T14:44:18;10.7;82.4
72919;SHT30;61063;55.700;26.994;2022-11-02T14:49:24;10.6;82.6
72919;SHT30;61063;55.700;26.994;2022-11-02T14:54:03;10.4;83.2
72919;SHT30;61063;55.700;26.994;2022-11-02T14:59:43;10.3;83.5
72919;SHT30;61063;55.700;26.994;2022-11-02T15:04:45;10.3;83.7
72919;SHT30;61063;55.700;26.994;2022-11-02T15:09:55;10.3;83.7
72919;SHT30;61063;55.700;26.994;2022-11-02T15:14:59;10.3;83.6
72919;SHT30;61063;55.700;26.994;2022-11-02T15:19:44;10.3;83.6
72919;SHT30;61063;55.700;26.994;2022-11-02T15:24:40;10.4;83.3
72919;SHT30;61063;55.700;26.994;2022-11-02T15:29:14;10.4;83.3
72919;SHT30;61063;55.700;26.994;2022-11-02T15:34:41;10.4;83.3
72919;SHT30;61063;55.700;26.994;2022-11-02T15:39:12;10.4;83.2
72919;SHT30;61063;55.700;26.994;2022-11-02T15:44:49;10.4;83.2
72919;SHT30;61063;55.700;26.994;2022-11-02T15:48:59;10.3;83.3
72919;SHT30;61063;55.700;26.994;2022-11-02T15:54:11;10.2;83.6
72919;SHT30;61063;55.700;26.994;2022-11-02T15:59:25;10.1;83.9
72919;SHT30;61063;55.700;26.994;2022-11-02T16:04:43;10.1;84
72919;SHT30;61063;55.700;26.994;2022-11-02T16:09:43;10.1;83.9
72919;SHT30;61063;55.700;26.994;2022-11-02T16:14:39;10;84
72919;SHT30;61063;55.700;26.994;2022-11-02T16:19:40;9.9;84.4
72919;SHT30;61063;55.700;26.994;2022-11-02T16:24:26;9.9;84.6
72919;SHT30;61063;55.700;26.994;2022-11-02T16:29:18;9.9;84.8
72919;SHT30;61063;55.700;26.994;2022-11-02T16:33:57;10;84.7
72919;SHT30;61063;55.700;26.994;2022-11-02T16:39:42;10;84.6
72919;SHT30;61063;55.700;26.994;2022-11-02T16:43:54;10;84.5
72919;SHT30;61063;55.700;26.994;2022-11-02T16:49:55;10;84.4
72919;SHT30;61063;55.700;26.994;2022-11-02T16:54:17;10;84.3
72919;SHT30;61063;55.700;26.994;2022-11-02T16:59:04;10.1;84.1
72919;SHT30;61063;55.700;26.994;2022-11-02T17:04:19;10.1;84.1
72919;SHT30;61063;55.700;26.994;2022-11-02T17:09:23;10.1;84.1
72919;SHT30;61063;55.700;26.994;2022-11-02T17:14:40;10.1;84.2
72919;SHT30;61063;55.700;26.994;2022-11-02T17:19:11;10;84.4
72919;SHT30;61063;55.700;26.994;2022-11-02T17:24:29;9.9;84.6
72919;SHT30;61063;55.700;26.994;2022-11-02T17:29:42;9.9;84.9
72919;SHT30;61063;55.700;26.994;2022-11-02T17:34:46;9.8;85.1
72919;SHT30;61063;55.700;26.994;2022-11-02T17:39:07;9.8;85.3
72919;SHT30;61063;55.700;26.994;2022-11-02T17:44:32;9.7;85.4
72919;SHT30;61063;55.700;26.994;2022-11-02T17:49:46;9.7;85.5
72919;SHT30;61063;55.700;26.994;2022-11-02T17:54:46;9.7;85.5
72919;SHT30;61063;55.700;26.994;2022-11-02T17:59:46;9.7;85.6
72919;SHT30;61063;55.700;26.994;2022-11-02T18:04:46;9.7;85.5
72919;SHT30;61063;55.700;26.994;2022-11-02T18:09:44;9.7;85.5
72919;SHT30;61063;55.700;26.994;2022-11-02T18:14:04;9.7;85.7
72919;SHT30;61063;55.700;26.994;2022-11-02T18:19:18;9.6;85.8
72919;SHT30;61063;55.700;26.994;2022-11-02T18:24:30;9.6;86
72919;SHT30;61063;55.700;26.994;2022-11-02T18:29:16;9.6;86
72919;SHT30;61063;55.700;26.994;2022-11-02T18:34:16;9.5;86.2
72919;SHT30;61063;55.700;26.994;2022-11-02T18:38:56;9.5;86.2
72919;SHT30;61063;55.700;26.994;2022-11-02T18:44:46;9.5;86.3
72919;SHT30;61063;55.700;26.994;2022-11-02T18:49:46;9.5;86.5
72919;SHT30;61063;55.700;26.994;2022-11-02T18:54:31;9.4;86.7
72919;SHT30;61063;55.700;26.994;2022-11-02T18:59:32;9.4;86.9
72919;SHT30;61063;55.700;26.994;2022-11-02T19:04:16;9.5;87
72919;SHT30;61063;55.700;26.994;2022-11-02T19:09:46;9.5;87.2
72919;SHT30;61063;55.700;26.994;2022-11-02T19:14:32;9.4;87.5
72919;SHT30;61063;55.700;26.994;2022-11-02T19:19:47;9.4;87.7
72919;SHT30;61063;55.700;26.994;2022-11-02T19:24:14;9.4;87.8
72919;SHT30;61063;55.700;26.994;2022-11-02T19:29:08;9.4;87.9
72919;SHT30;61063;55.700;26.994;2022-11-02T19:34:20;9.4;88
72919;SHT30;61063;55.700;26.994;2022-11-02T19:39:31;9.4;88.2
72919;SHT30;61063;55.700;26.994;2022-11-02T19:44:06;9.3;88.4
72919;SHT30;61063;55.700;26.994;2022-11-02T19:48:58;9.4;88.3
72919;SHT30;61063;55.700;26.994;2022-11-02T19:54:48;9.4;88.2
72919;SHT30;61063;55.700;26.994;2022-11-02T19:59:46;9.4;88
72919;SHT30;61063;55.700;26.994;2022-11-02T20:04:48;9.5;87.9
72919;SHT30;61063;55.700;26.994;2022-11-02T20:09:28;9.5;87.8
72919;SHT30;61063;55.700;26.994;2022-11-02T20:14:32;9.5;87.7
72919;SHT30;61063;55.700;26.994;2022-11-02T20:19:46;9.6;87.4
72919;SHT30;61063;55.700;26.994;2022-11-02T20:24:48;9.6;87.3
72919;SHT30;61063;55.700;26.994;2022-11-02T20:29:18;9.6;87.3
72919;SHT30;61063;55.700;26.994;2022-11-02T20:34:46;9.6;87.3
72919;SHT30;61063;55.700;26.994;2022-11-02T20:39:16;9.6;87.4
72919;SHT30;61063;55.700;26.994;2022-11-02T20:43:56;9.6;87.3
72919;SHT30;61063;55.700;26.994;2022-11-02T20:49:32;9.6;87.2
72919;SHT30;61063;55.700;26.994;2022-11-02T20:54:20;9.5;87.3
72919;SHT30;61063;55.700;26.994;2022-11-02T20:59:46;9.5;87.4
72919;SHT30;61063;55.700;26.994;2022-11-02T21:04:46;9.5;87.5
72919;SHT30;61063;55.700;26.994;2022-11-02T21:09:19;9.5;87.6
72919;SHT30;61063;55.700;26.994;2022-11-02T21:14:34;9.4;87.6
72919;SHT30;61063;55.700;26.994;2022-11-02T21:19:34;9.4;87.8
72919;SHT30;61063;55.700;26.994;2022-11-02T21:24:11;9.3;88
72919;SHT30;61063;55.700;26.994;2022-11-02T21:29:18;9.3;88
72919;SHT30;61063;55.700;26.994;2022-11-02T21:34:06;9.3;87.9
72919;SHT30;61063;55.700;26.994;2022-11-02T21:39:18;9.3;87.6
72919;SHT30;61063;55.700;26.994;2022-11-02T21:44:34;9.3;87.8
72919;SHT30;61063;55.700;26.994;2022-11-02T21:49:18;9.3;87.8
72919;SHT30;61063;55.700;26.994;2022-11-02T21:54:44;9.3;87.6
72919;SHT30;61063;55.700;26.994;2022-11-02T21:59:44;9.3;87.6
72919;SHT30;61063;55.700;26.994;2022-11-02T22:04:30;9.3;87.6
72919;SHT30;61063;55.700;26.994;2022-11-02T22:09:40;9.3;87.7
72919;SHT30;61063;55.700;26.994;2022-11-02T22:14:41;9.3;87.7
72919;SHT30;61063;55.700;26.994;2022-11-02T22:19:42;9.3;87.7
72919;SHT30;61063;55.700;26.994;2022-11-02T22:24:03;9.3;87.5
72919;SHT30;61063;55.700;26.994;2022-11-02T22:29:30;9.2;87.5
72919;SHT30;61063;55.700;26.994;2022-11-02T22:34:30;9.1;87.7
72919;SHT30;61063;55.700;26.994;2022-11-02T22:39:03;9.1;87.8
72919;SHT30;61063;55.700;26.994;2022-11-02T22:44:13;9.1;87.7
72919;SHT30;61063;55.700;26.994;2022-11-02T22:49:01;9.1;87.6
72919;SHT30;61063;55.700;26.994;2022-11-02T22:53:58;9.1;87.5
72919;SHT30;61063;55.700;26.994;2022-11-02T22:59:16;9.1;87.7
72919;SHT30;61063;55.700;26.994;2022-11-02T23:04:29;9.1;87.6
72919;SHT30;61063;55.700;26.994;2022-11-02T23:09:32;9.1;87.6
72919;SHT30;61063;55.700;26.994;2022-11-02T23:14:16;9.1;87.6
72919;SHT30;61063;55.700;26.994;2022-11-02T23:19:05;9.1;87.5
72919;SHT30;61063;55.700;26.994;2022-11-02T23:24:17;9.1;87.5
72919;SHT30;61063;55.700;26.994;2022-11-02T23:29:45;9.1;87.6
72919;SHT30;61063;55.700;26.994;2022-11-02T23:34:45;9.1;87.7
72919;SHT30;61063;55.700;26.994;2022-11-02T23:39:42;9.1;87.7
72919;SHT30;61063;55.700;26.994;2022-11-02T23:44:29;9.1;87.8
72919;SHT30;61063;55.700;26.994;2022-11-02T23:49:19;9;87.9
72919;SHT30;61063;55.700;26.994;2022-11-02T23:54:31;9;88.1
72919;SHT30;61063;55.700;26.994;2022-11-02T23:59:15;9;88.2
